New Meadows, Idaho
Current Conditions -  °F | °C
As of 1:51 AM on Friday 31 Oct 2014 (Local Time) from KMYL Reporting Station
Clear Clear  
Wind Chill:   Ceiling: Unl
Heat Index:   Visibility: 10mi
Dew Point:   Wind: 0mph
Humidity: 89%   Direction: NA
Pressure: 29.92"   Gusts: NA
Location:  44.97°N, 116.28°W
Report Text: KMYL 310751Z AUTO 00000KT 10SM CLR 04/02 A2992 RMK AO2 SLP121 T00390022
Loading
Personal Weather Stations






























Interactive Weather Map
Tropical Storm Tracking
New forecast layout! Learn more

10-Day Weather Forecast

Advertisements
Track Severe Weather on mobile